Latest Weather Observations for Laverton

IDW60801

Issued at 7:32 am WST Monday 30 March 2015 (issued every 30 minutes, with the page automatically refreshed every 10 minutes)

About weather observations | Map of weather stations | Latest weather observations for WA | Other Formats
Station Details ID: 012305 Name: LAVERTON AERO Lat: -28.61 Lon: 122.42 Height: 464.3 m
Data from the previous 72 hours. | See also: Recent months at Laverton
Date/Time
WST
Temp
°C
App
Temp
°C
Dew
Point
Rel
Hum
%
Delta-T
°C
Wind Press
QNH
hPa
Press
MSL
hPa
Rain
since 9 am
mm
Dir
 
Spd
km/h
Gust
km/h
Spd
kts
Gust
kts
30/07:30am 21.7 16.8 11.4 52 5.8 ENE 28 39 15 21 1021.6 1019.0 0.0
30/07:00am 20.1 16.1 11.8 59 4.7 ENE 24 32 13 17 1021.4 1018.8 0.0
30/06:30am 18.7 16.2 12.2 66 3.7 ENE 17 20 9 11 1021.4 1018.8 0.0
30/06:00am 18.2 16.0 12.0 67 3.5 E 15 19 8 10 1021.2 1018.6 0.0
30/05:30am 18.7 16.1 12.0 65 3.8 ENE 17 22 9 12 1020.8 1018.3 0.0
30/05:00am 18.8 16.2 12.1 65 3.8 ENE 17 20 9 11 1020.4 1017.9 0.0
30/04:30am 19.0 16.0 12.0 64 4.0 ENE 19 22 10 12 1020.1 1017.6 0.0
30/04:00am 19.2 16.2 12.0 63 4.1 ENE 19 24 10 13 1020.0 1017.5 0.0
30/03:30am 19.6 17.0 11.9 61 4.4 ENE 17 22 9 12 1019.7 1017.1 0.0
30/03:00am 20.0 17.0 12.0 60 4.5 ENE 19 24 10 13 1019.6 1017.0 0.0
30/02:30am 20.3 17.1 12.0 59 4.7 E 20 24 11 13 1019.6 1017.0 0.0
30/02:00am 20.5 17.4 11.7 57 5.0 ENE 19 22 10 12 1020.1 1017.6 0.0
30/01:30am 21.1 18.0 11.7 55 5.4 E 19 24 10 13 1020.1 1017.6 0.0
30/01:00am 21.3 18.2 11.6 54 5.5 E 19 24 10 13 1020.3 1017.8 0.0
30/12:30am 21.4 18.2 11.4 53 5.7 E 19 22 10 12 1020.4 1017.9 0.0
30/12:00am 21.5 18.2 10.9 51 5.9 E 19 22 10 12 1020.6 1018.1 0.0
 
Date/Time
WST
Temp
°C
App
Temp
°C
Dew
Point
Rel
Hum
%
Delta-T
°C
Wind Press
QNH
hPa
Press
MSL
hPa
Rain
since 9 am
mm
Dir
 
Spd
km/h
Gust
km/h
Spd
kts
Gust
kts
29/11:30pm 22.0 18.8 11.1 50 6.2 E 19 20 10 11 1020.8 1018.3 0.0
29/11:00pm 22.2 20.0 10.7 48 6.4 ENE 13 15 7 8 1020.7 1018.2 0.0
29/10:30pm 22.8 21.0 10.9 47 6.7 ENE 11 13 6 7 1021.1 1018.5 0.0
29/10:00pm 23.4 20.8 10.8 45 7.1 ENE 15 19 8 10 1021.2 1018.6 0.0
29/09:30pm 23.8 21.5 10.5 43 7.5 ENE 13 19 7 10 1021.6 1019.0 0.0
29/09:00pm 24.4 21.7 10.3 41 7.9 E 15 17 8 9 1021.6 1019.0 0.0
29/08:30pm 24.9 22.5 10.0 39 8.4 ENE 13 15 7 8 1021.5 1018.9 0.0
29/08:00pm 25.8 23.4 10.0 37 8.9 E 13 17 7 9 1021.4 1018.8 0.0
29/07:30pm 26.3 24.3 10.0 36 9.2 E 11 13 6 7 1021.4 1018.8 0.0
29/07:00pm 27.1 24.7 9.9 34 9.7 E 13 17 7 9 1021.3 1018.7 0.0
29/06:30pm 27.6 25.6 8.5 30 10.6 SE 9 11 5 6 1020.8 1018.3 0.0
29/06:00pm 28.1 26.0 8.4 29 10.9 SE 9 13 5 7 1020.4 1017.9 0.0
29/05:30pm 28.7 26.2 8.4 28 11.3 SSE 11 15 6 8 1020.1 1017.6 0.0
29/05:00pm 28.9 27.8 8.6 28 11.4 W 4 9 2 5 1019.9 1017.4 0.0
29/04:30pm 29.0 27.5 9.2 29 11.2 SSE 7 11 4 6 1020.0 1017.5 0.0
29/04:00pm 29.1 26.7 8.7 28 11.4 S 11 20 6 11 1019.6 1017.0 0.0
29/03:30pm 29.7 27.5 9.3 28 11.6 SW 11 17 6 9 1019.4 1016.8 0.0
29/03:00pm 30.0 29.4 9.0 27 11.9 SE 2 9 1 5 1019.5 1016.9 0.0
29/02:30pm 29.2 27.7 9.3 29 11.3 SW 7 15 4 8 1019.6 1017.0 0.0
29/02:00pm 28.8 26.2 9.5 30 11.0 SSW 13 22 7 12 1019.8 1017.3 0.0
29/01:30pm 29.0 27.6 9.7 30 11.0 SSE 7 15 4 8 1020.0 1017.5 0.0
29/01:00pm 28.8 26.5 10.5 32 10.6 SW 13 22 7 12 1020.3 1017.8 0.0
29/12:30pm 28.8 28.0 10.9 33 10.4 WNW 6 9 3 5 1020.7 1018.2 0.0
29/12:00pm 27.7 25.5 10.9 35 9.7 ESE 13 20 7 11 1021.2 1018.6 0.0
29/11:30am 27.6 26.4 12.8 40 8.8 NE 11 19 6 10 1021.9 1019.4 0.0
29/11:00am 27.1 26.0 13.1 42 8.4 ENE 11 19 6 10 1022.3 1019.8 0.0
29/10:30am 26.9 24.3 13.3 43 8.2 E 19 26 10 14 1022.7 1020.2 0.0
29/10:00am 25.9 22.7 13.1 45 7.6 E 22 28 12 15 1023.0 1020.5 0.0
29/09:30am 25.2 22.6 13.1 47 7.2 ENE 19 26 10 14 1023.1 1020.6 0.0
29/09:00am 24.0 21.2 13.2 50 6.4 ENE 20 26 11 14 1023.4 1020.8 0.0
29/08:30am 22.6 20.5 14.7 61 4.8 ENE 19 24 10 13 1023.2 1020.7 0.0
29/08:00am 21.0 19.1 15.3 70 3.4 E 19 24 10 13 1022.9 1020.4 0.0
29/07:30am 19.5 17.5 15.6 78 2.4 E 20 26 11 14 1022.5 1020.0 0.0
29/07:00am 18.3 16.3 15.4 83 1.7 E 20 24 11 13 1022.2 1019.7 0.0
29/06:30am 17.5 16.0 15.3 87 1.3 ESE 17 20 9 11 1022.0 1019.5 0.0
29/06:00am 17.0 16.3 15.5 91 0.9 ESE 13 17 7 9 1021.8 1019.3 0.0
29/05:30am 17.3 16.3 15.5 89 1.1 ESE 15 20 8 11 1021.6 1019.0 0.0
29/05:00am 17.4 15.9 15.2 87 1.3 ESE 17 22 9 12 1021.2 1018.6 0.0
29/04:30am 17.6 16.4 15.0 85 1.5 E 15 19 8 10 1020.9 1018.4 0.0
29/04:00am 17.7 16.8 14.8 83 1.7 E 13 19 7 10 1020.6 1018.1 0.0
29/03:30am 17.9 17.0 14.8 82 1.8 E 13 17 7 9 1020.4 1017.9 0.0
29/03:00am 18.2 16.9 14.7 80 2.1 ESE 15 17 8 9 1020.3 1017.8 0.0
29/02:30am 18.6 17.6 14.5 77 2.4 ESE 13 17 7 9 1020.4 1017.9 0.0
29/02:00am 19.0 17.5 14.3 74 2.8 ESE 15 17 8 9 1020.4 1017.9 0.0
29/01:30am 19.4 18.2 14.0 71 3.2 ESE 13 19 7 10 1020.6 1018.1 0.0
29/01:00am 19.8 17.7 13.7 68 3.6 ESE 17 22 9 12 1020.5 1018.0 0.0
29/12:30am 20.2 17.4 13.2 64 4.1 ESE 20 28 11 15 1020.8 1018.3 0.0
29/12:00am 20.6 17.8 12.6 60 4.6 ESE 19 24 10 13 1020.8 1018.3 0.0
 
Date/Time
WST
Temp
°C
App
Temp
°C
Dew
Point
Rel
Hum
%
Delta-T
°C
Wind Press
QNH
hPa
Press
MSL
hPa
Rain
since 9 am
mm
Dir
 
Spd
km/h
Gust
km/h
Spd
kts
Gust
kts
28/11:30pm 20.8 17.8 12.0 57 5.0 ESE 19 26 10 14 1020.8 1018.3 0.0
28/11:00pm 21.2 18.1 11.5 54 5.5 SE 19 24 10 13 1020.9 1018.4 0.0
28/10:30pm 21.6 18.2 11.3 52 5.8 SE 20 26 11 14 1021.1 1018.5 0.0
28/10:00pm 21.8 18.5 10.9 50 6.1 SE 19 24 10 13 1021.3 1018.7 0.0
28/09:30pm 22.5 19.1 10.6 47 6.7 SE 19 22 10 12 1021.2 1018.6 0.0
28/09:00pm 23.0 19.9 10.4 45 7.1 SE 17 20 9 11 1020.8 1018.3 0.0
28/08:30pm 23.4 19.7 10.1 43 7.4 SSE 20 30 11 16 1020.3 1017.8 0.0
28/08:00pm 24.0 20.6 9.2 39 8.2 SSE 17 20 9 11 1019.9 1017.4 0.0
28/07:30pm 24.7 20.8 8.6 36 8.8 S 19 26 10 14 1019.5 1016.9 0.0
28/07:00pm 25.1 22.7 10.2 39 8.4 S 13 19 7 10 1019.0 1016.4 0.0
28/06:30pm 25.7 22.6 10.3 38 8.7 S 17 19 9 10 1018.4 1015.9 0.0
28/06:00pm 26.4 23.2 10.1 36 9.2 S 17 22 9 12 1018.1 1015.6 0.0
28/05:30pm 27.2 24.5 10.4 35 9.6 SSW 15 19 8 10 1017.8 1015.3 0.0
28/05:00pm 27.7 25.2 10.9 35 9.7 S 15 20 8 11 1017.6 1015.0 0.0
28/04:30pm 28.0 26.0 11.5 35 9.7 SSE 13 20 7 11 1017.5 1014.9 0.0
28/04:00pm 28.0 26.4 11.5 35 9.6 S 11 20 6 11 1017.5 1014.9 0.0
28/03:30pm 27.2 24.5 11.7 38 9.1 SSW 17 24 9 13 1017.6 1015.0 0.0
28/03:00pm 27.5 24.6 11.1 36 9.5 W 17 26 9 14 1017.4 1014.8 0.0
28/02:30pm 27.0 25.7 11.1 37 9.2 W 9 15 5 8 1017.5 1014.9 0.0
28/02:00pm 27.1 24.0 10.3 35 9.6 S 17 22 9 12 1017.6 1015.0 0.0
28/01:30pm 28.0 25.8 12.0 37 9.4 SSW 15 22 8 12 1017.7 1015.1 0.0
28/01:00pm 27.2 24.9 11.7 38 9.1 S 15 26 8 14 1018.1 1015.6 0.0
28/12:30pm 27.0 25.0 12.6 41 8.5 SSW 15 26 8 14 1018.4 1015.9 0.0
28/12:00pm 26.8 26.1 13.2 43 8.1 W 9 17 5 9 1019.1 1016.5 0.0
28/11:30am 25.8 25.1 14.3 49 7.0 W 11 17 6 9 1019.6 1017.0 0.0
28/11:00am 25.3 25.4 15.6 55 6.0 SSW 9 19 5 10 1019.9 1017.4 0.0
28/10:30am 24.4 24.9 15.6 58 5.4 SSW 7 15 4 8 1020.1 1017.6 0.0
28/10:00am 24.1 25.0 16.1 61 5.0 SW 6 13 3 7 1020.3 1017.8 0.0
28/09:30am 23.7 24.6 16.5 64 4.5 NNW 7 13 4 7 1020.4 1017.9 0.0
28/09:00am 22.2 22.5 16.0 68 3.8 NW 9 15 5 8 1020.6 1018.1 1.2
28/08:30am 21.6 21.5 16.1 71 3.4 NNW 11 15 6 8 1020.6 1018.1 1.2
28/08:00am 20.7 20.4 16.5 77 2.6 N 13 20 7 11 1020.4 1017.9 1.0
28/07:30am 19.2 19.3 16.4 84 1.7 NNE 11 15 6 8 1020.2 1017.7 1.0
28/07:00am 17.9 18.4 16.6 92 0.8 NNE 9 13 5 7 1020.0 1017.5 1.0
28/06:30am 16.7 17.5 16.4 98 0.2 NNE 7 9 4 5 1019.8 1017.3 1.0
28/06:00am 16.7 17.1 16.4 98 0.2 NE 9 11 5 6 1019.4 1016.8 1.0
28/05:30am 16.7 17.1 16.4 98 0.2 NE 9 11 5 6 1019.4 1016.8 1.0
28/05:00am 16.9 17.0 16.6 98 0.2 NE 11 15 6 8 1019.0 1016.4 1.0
28/04:30am 16.9 17.8 16.6 98 0.2 NE 7 9 4 5 1018.6 1016.1 1.0
28/04:00am 17.0 19.3 16.7 98 0.2 CALM 0 0 0 0 1018.3 1015.8 1.0
28/03:30am 16.9 19.1 16.6 98 0.2 CALM 0 0 0 0 1018.4 1015.9 1.0
28/03:00am 16.8 17.7 16.5 98 0.2 ENE 7 9 4 5 1018.5 1016.0 1.0
28/02:30am 16.8 17.9 16.5 98 0.2 NE 6 9 3 5 1018.9 1016.3 1.0
28/02:00am 17.1 19.2 16.3 95 0.5 CALM 0 0 0 0 1019.1 1016.5 1.0
28/01:30am 17.3 17.6 16.0 92 0.8 NE 9 13 5 7 1019.3 1016.7 1.0
28/01:00am 17.4 17.7 16.1 92 0.8 NNE 9 15 5 8 1019.6 1017.0 1.0
28/12:30am 17.4 17.1 16.4 94 0.6 NE 13 15 7 8 1019.8 1017.3 1.0
28/12:00am 17.5 18.1 16.7 95 0.5 NE 9 11 5 6 1019.9 1017.4 1.0
 
Date/Time
WST
Temp
°C
App
Temp
°C
Dew
Point
Rel
Hum
%
Delta-T
°C
Wind Press
QNH
hPa
Press
MSL
hPa
Rain
since 9 am
mm
Dir
 
Spd
km/h
Gust
km/h
Spd
kts
Gust
kts
27/11:30pm 17.5 18.1 16.7 95 0.5 ENE 9 13 5 7 1020.0 1017.5 1.0
27/11:00pm 17.6 17.7 16.5 93 0.7 NE 11 15 6 8 1020.4 1017.9 1.0
27/10:30pm 17.7 18.0 15.9 89 1.1 NE 9 13 5 7 1020.6 1018.1 1.0
27/10:00pm 17.9 17.5 15.3 85 1.5 NE 11 17 6 9 1021.1 1018.5 0.8
27/09:30pm 18.9 18.2 14.2 74 2.8 NE 11 15 6 8 1021.3 1018.7 0.4
27/09:00pm 18.9 18.5 14.0 73 2.9 ENE 9 13 5 7 1020.9 1018.4 0.4
27/08:30pm 19.1 17.5 13.9 72 3.0 NE 15 22 8 12 1020.7 1018.2 0.4
27/08:00pm 19.3 16.7 13.7 70 3.3 NE 20 24 11 13 1020.5 1018.0 0.4
27/07:30pm 19.8 17.3 13.5 67 3.7 NE 19 24 10 13 1020.2 1017.7 0.4
27/07:00pm 20.1 17.5 13.8 67 3.7 NE 20 32 11 17 1019.9 1017.4 0.4
27/06:30pm 20.2 16.8 13.6 66 3.9 NNE 24 32 13 17 1020.0 1017.5 0.4
27/06:00pm 20.4 17.5 14.1 67 3.7 NE 22 28 12 15 1019.7 1017.1 0.4
27/05:30pm 20.9 17.9 13.8 64 4.2 NNE 22 35 12 19 1019.8 1017.3 0.4
27/05:00pm 21.6 18.8 13.2 59 4.9 NNE 20 30 11 16 1019.6 1017.0 0.4
27/04:30pm 21.2 19.5 14.6 66 4.0 NNE 17 22 9 12 1019.5 1016.9 0.4
27/04:00pm 19.8 19.7 16.1 79 2.3 NNW 11 17 6 9 1019.7 1017.1 0.4
27/03:30pm 23.4 18.6 11.5 47 6.8 NNW 28 35 15 19 1019.8 1017.3 0.0
27/03:00pm 24.0 20.9 12.3 48 6.8 NNE 20 28 11 15 1019.8 1017.3 0.0
27/02:30pm 23.6 20.2 12.6 50 6.4 NNE 22 30 12 16 1020.1 1017.6 0.0
27/02:00pm 22.9 20.2 12.8 53 5.9 N 19 24 10 13 1020.3 1017.8 0.0
27/01:30pm 24.3 20.9 11.3 44 7.5 N 20 30 11 16 1020.6 1018.1 0.0
27/01:00pm 24.7 21.0 11.6 44 7.6 N 22 32 12 17 1020.6 1018.1 0.0
27/12:30pm 24.8 21.1 11.4 43 7.7 NNE 22 30 12 16 1020.8 1018.3 0.0
27/12:00pm 24.5 20.4 11.5 44 7.5 N 24 32 13 17 1021.6 1019.0 0.0
27/11:30am 23.6 18.1 10.6 44 7.3 N 30 41 16 22 1022.2 1019.7 0.0
27/11:00am 24.4 18.8 10.3 41 7.9 N 30 39 16 21 1022.5 1020.0 0.0
27/10:30am 21.9 16.5 9.4 45 6.9 NNE 28 41 15 22 1023.1 1020.6 0.0
27/10:00am 23.1 17.2 9.1 41 7.7 NNE 30 41 16 22 1023.2 1020.7 0.0
27/09:30am 22.3 16.6 8.4 41 7.5 NE 28 39 15 21 1023.5 1020.9 0.0
27/09:00am 21.7 16.3 7.9 41 7.3 NE 26 35 14 19 1023.7 1021.2 0.2
27/08:30am 20.0 15.3 7.7 45 6.5 NE 22 32 12 17 1023.9 1021.4 0.2
27/08:00am 19.2 15.4 7.6 47 6.0 ENE 17 24 9 13 1024.1 1021.6 0.2

Other Formats:

Comma delimited format used in spreadsheet applications
http://www.bom.gov.au/fwo/IDW60801/IDW60801.94449.axf

JavaScript Object Notation format (JSON) in row-major order
http://www.bom.gov.au/fwo/IDW60801/IDW60801.94449.json